sensor_id;sensor_type;location;lat;lon;timestamp;pressure;altitude;pressure_sealevel;temperature;humidity
36834;BME280;48003;52.084;5.224;2023-03-16T00:00:35;101835.0;;;7.27;62.1
36834;BME280;48003;52.084;5.224;2023-03-16T00:02:11;101835.0;;;7.28;62.22
36834;BME280;48003;52.084;5.224;2023-03-16T00:05:24;101831.0;;;7.53;61.58
36834;BME280;48003;52.084;5.224;2023-03-16T00:07:00;101835.0;;;7.55;61.56
36834;BME280;48003;52.084;5.224;2023-03-16T00:08:36;101831.0;;;7.33;62.14
36834;BME280;48003;52.084;5.224;2023-03-16T00:11:49;101823.0;;;7.38;62.45
36834;BME280;48003;52.084;5.224;2023-03-16T00:13:25;101816.0;;;7.4;62.52
36834;BME280;48003;52.084;5.224;2023-03-16T00:15:02;101810.0;;;7.44;62.54
36834;BME280;48003;52.084;5.224;2023-03-16T00:16:38;101813.0;;;7.41;62.7
36834;BME280;48003;52.084;5.224;2023-03-16T00:19:51;101807.0;;;7.34;62.8
36834;BME280;48003;52.084;5.224;2023-03-16T00:21:29;101810.0;;;7.5;62.45
36834;BME280;48003;52.084;5.224;2023-03-16T00:23:06;101800.0;;;7.33;63.13
36834;BME280;48003;52.084;5.224;2023-03-16T00:26:17;101807.0;;;7.22;63.64
36834;BME280;48003;52.084;5.224;2023-03-16T00:27:54;101803.0;;;7.57;62.84
36834;BME280;48003;52.084;5.224;2023-03-16T00:29:30;101806.0;;;7.37;63.31
36834;BME280;48003;52.084;5.224;2023-03-16T00:32:45;101795.0;;;7.29;63.83
36834;BME280;48003;52.084;5.224;2023-03-16T00:34:21;101795.0;;;7.47;63.39
36834;BME280;48003;52.084;5.224;2023-03-16T00:35:57;101796.0;;;7.16;64.33
36834;BME280;48003;52.084;5.224;2023-03-16T00:37:33;101790.0;;;7.19;64.59
36834;BME280;48003;52.084;5.224;2023-03-16T00:40:45;101786.0;;;7.23;64.5
36834;BME280;48003;52.084;5.224;2023-03-16T00:42:23;101788.0;;;7.15;64.8
36834;BME280;48003;52.084;5.224;2023-03-16T00:44:00;101783.0;;;7.08;65.25
36834;BME280;48003;52.084;5.224;2023-03-16T00:47:13;101793.0;;;7.02;65.45
36834;BME280;48003;52.084;5.224;2023-03-16T00:48:49;101788.0;;;6.98;65.91
36834;BME280;48003;52.084;5.224;2023-03-16T00:50:25;101786.0;;;7.21;65.49
36834;BME280;48003;52.084;5.224;2023-03-16T00:53:40;101789.0;;;7.19;65.49
36834;BME280;48003;52.084;5.224;2023-03-16T00:55:17;101781.0;;;7.35;65.14
36834;BME280;48003;52.084;5.224;2023-03-16T00:56:53;101775.0;;;7.23;65.49
36834;BME280;48003;52.084;5.224;2023-03-16T00:58:29;101774.0;;;7.03;66.05
36834;BME280;48003;52.084;5.224;2023-03-16T01:01:42;101766.0;;;7.16;65.97
36834;BME280;48003;52.084;5.224;2023-03-16T01:03:18;101760.0;;;7.17;65.97
36834;BME280;48003;52.084;5.224;2023-03-16T01:04:54;101757.0;;;7.14;66.36
36834;BME280;48003;52.084;5.224;2023-03-16T01:08:07;101751.0;;;7.39;65.45
36834;BME280;48003;52.084;5.224;2023-03-16T01:09:44;101753.0;;;7.08;66.44
36834;BME280;48003;52.084;5.224;2023-03-16T01:11:22;101748.0;;;7.08;66.66
36834;BME280;48003;52.084;5.224;2023-03-16T01:14:35;101744.0;;;7.3;66.14
36834;BME280;48003;52.084;5.224;2023-03-16T01:16:13;101740.0;;;7.24;66.42
36834;BME280;48003;52.084;5.224;2023-03-16T01:17:49;101735.0;;;7.13;66.67
36834;BME280;48003;52.084;5.224;2023-03-16T01:19:26;101737.0;;;7.27;66.17
36834;BME280;48003;52.084;5.224;2023-03-16T01:22:42;101744.0;;;7.16;66.84
36834;BME280;48003;52.084;5.224;2023-03-16T01:24:18;101746.0;;;7.29;66.69
36834;BME280;48003;52.084;5.224;2023-03-16T01:25:54;101746.0;;;7.7;65.58
36834;BME280;48003;52.084;5.224;2023-03-16T01:29:07;101733.0;;;7.53;66.05
36834;BME280;48003;52.084;5.224;2023-03-16T01:30:43;101727.0;;;7.51;66.33
36834;BME280;48003;52.084;5.224;2023-03-16T01:32:19;101730.0;;;7.29;66.91
36834;BME280;48003;52.084;5.224;2023-03-16T01:33:56;101734.0;;;7.09;67.69
36834;BME280;48003;52.084;5.224;2023-03-16T01:37:09;101724.0;;;7.05;67.95
36834;BME280;48003;52.084;5.224;2023-03-16T01:38:45;101722.0;;;7.26;67.44
36834;BME280;48003;52.084;5.224;2023-03-16T01:40:22;101716.0;;;7.25;67.44
36834;BME280;48003;52.084;5.224;2023-03-16T01:43:37;101712.0;;;7.21;67.69
36834;BME280;48003;52.084;5.224;2023-03-16T01:46:21;101714.0;;;7.17;67.73
36834;BME280;48003;52.084;5.224;2023-03-16T01:47:59;101716.0;;;7.29;67.52
36834;BME280;48003;52.084;5.224;2023-03-16T01:49:36;101715.0;;;7.78;66.02
36834;BME280;48003;52.084;5.224;2023-03-16T01:51:15;101708.0;;;7.47;67.2
36834;BME280;48003;52.084;5.224;2023-03-16T01:52:53;101695.0;;;7.45;67.23
36834;BME280;48003;52.084;5.224;2023-03-16T01:56:12;101688.0;;;7.22;68.05
36834;BME280;48003;52.084;5.224;2023-03-16T01:57:51;101693.0;;;7.07;68.58
36834;BME280;48003;52.084;5.224;2023-03-16T01:59:32;101686.0;;;7.17;68.62
36834;BME280;48003;52.084;5.224;2023-03-16T02:01:13;101693.0;;;7.32;67.91
36834;BME280;48003;52.084;5.224;2023-03-16T02:04:39;101691.0;;;7.11;68.7
36834;BME280;48003;52.084;5.224;2023-03-16T02:06:19;101685.0;;;7.14;68.8
36834;BME280;48003;52.084;5.224;2023-03-16T02:07:55;101680.0;;;7.25;68.53
36834;BME280;48003;52.084;5.224;2023-03-16T02:09:34;101675.0;;;7.18;69.05
36834;BME280;48003;52.084;5.224;2023-03-16T02:12:51;101675.0;;;7.08;69.47
36834;BME280;48003;52.084;5.224;2023-03-16T02:14:27;101676.0;;;7.38;68.66
36834;BME280;48003;52.084;5.224;2023-03-16T02:16:05;101674.0;;;7.47;68.69
36834;BME280;48003;52.084;5.224;2023-03-16T02:19:28;101665.0;;;7.17;69.44
36834;BME280;48003;52.084;5.224;2023-03-16T02:21:14;101669.0;;;7.2;69.3
36834;BME280;48003;52.084;5.224;2023-03-16T02:22:56;101664.0;;;7.27;69.31
36834;BME280;48003;52.084;5.224;2023-03-16T02:24:33;101667.0;;;7.16;69.78
36834;BME280;48003;52.084;5.224;2023-03-16T02:28:01;101660.0;;;7.13;70.0
36834;BME280;48003;52.084;5.224;2023-03-16T02:29:50;101657.0;;;7.28;69.69
36834;BME280;48003;52.084;5.224;2023-03-16T02:31:51;101657.0;;;7.39;69.34
36834;BME280;48003;52.084;5.224;2023-03-16T02:33:29;101651.0;;;7.35;69.19
36834;BME280;48003;52.084;5.224;2023-03-16T02:35:08;101650.0;;;7.24;69.52
36834;BME280;48003;52.084;5.224;2023-03-16T02:36:46;101653.0;;;7.48;69.05
36834;BME280;48003;52.084;5.224;2023-03-16T02:40:01;101653.0;;;7.45;69.02
36834;BME280;48003;52.084;5.224;2023-03-16T02:41:54;101657.0;;;7.4;69.14
36834;BME280;48003;52.084;5.224;2023-03-16T02:43:32;101650.0;;;7.25;69.95
36834;BME280;48003;52.084;5.224;2023-03-16T02:45:11;101658.0;;;7.4;69.78
36834;BME280;48003;52.084;5.224;2023-03-16T02:48:27;101657.0;;;7.2;70.59
36834;BME280;48003;52.084;5.224;2023-03-16T02:50:11;101662.0;;;7.28;70.69
36834;BME280;48003;52.084;5.224;2023-03-16T02:51:47;101658.0;;;7.13;71.05
36834;BME280;48003;52.084;5.224;2023-03-16T02:55:00;101668.0;;;7.44;70.3
36834;BME280;48003;52.084;5.224;2023-03-16T02:56:37;101668.0;;;7.33;70.58
36834;BME280;48003;52.084;5.224;2023-03-16T02:58:13;101668.0;;;7.36;70.91
36834;BME280;48003;52.084;5.224;2023-03-16T02:59:50;101665.0;;;7.08;72.05
36834;BME280;48003;52.084;5.224;2023-03-16T03:03:03;101664.0;;;7.09;72.41
36834;BME280;48003;52.084;5.224;2023-03-16T03:04:40;101662.0;;;7.09;72.28
36834;BME280;48003;52.084;5.224;2023-03-16T03:06:17;101663.0;;;7.27;71.92
36834;BME280;48003;52.084;5.224;2023-03-16T03:09:30;101661.0;;;7.32;71.72
36834;BME280;48003;52.084;5.224;2023-03-16T03:11:06;101658.0;;;7.24;71.7
36834;BME280;48003;52.084;5.224;2023-03-16T03:12:42;101650.0;;;7.26;72.13
36834;BME280;48003;52.084;5.224;2023-03-16T03:15:55;101652.0;;;7.14;72.3
36834;BME280;48003;52.084;5.224;2023-03-16T03:17:31;101648.0;;;7.19;72.17
36834;BME280;48003;52.084;5.224;2023-03-16T03:19:07;101647.0;;;7.21;72.25
36834;BME280;48003;52.084;5.224;2023-03-16T03:20:43;101644.0;;;7.39;72.08
36834;BME280;48003;52.084;5.224;2023-03-16T03:23:56;101645.0;;;7.48;72.05
36834;BME280;48003;52.084;5.224;2023-03-16T03:25:32;101639.0;;;7.24;73.34
36834;BME280;48003;52.084;5.224;2023-03-16T03:27:08;101645.0;;;7.25;73.78
36834;BME280;48003;52.084;5.224;2023-03-16T03:30:25;101642.0;;;7.15;74.11
36834;BME280;48003;52.084;5.224;2023-03-16T03:32:02;101640.0;;;7.03;74.47
36834;BME280;48003;52.084;5.224;2023-03-16T03:33:39;101642.0;;;7.39;73.86
36834;BME280;48003;52.084;5.224;2023-03-16T03:35:15;101633.0;;;7.1;75.44
36834;BME280;48003;52.084;5.224;2023-03-16T03:38:28;101628.0;;;6.94;76.11
36834;BME280;48003;52.084;5.224;2023-03-16T03:40:05;101627.0;;;7.21;75.64
36834;BME280;48003;52.084;5.224;2023-03-16T03:41:41;101627.0;;;7.05;76.86
36834;BME280;48003;52.084;5.224;2023-03-16T03:44:55;101623.0;;;7.05;76.75
36834;BME280;48003;52.084;5.224;2023-03-16T03:46:31;101620.0;;;7.34;76.3
36834;BME280;48003;52.084;5.224;2023-03-16T03:48:07;101610.0;;;7.23;77.06
36834;BME280;48003;52.084;5.224;2023-03-16T03:51:19;101616.0;;;7.51;75.52
36834;BME280;48003;52.084;5.224;2023-03-16T03:52:55;101617.0;;;7.83;74.44
36834;BME280;48003;52.084;5.224;2023-03-16T03:54:32;101618.0;;;7.12;76.83
36834;BME280;48003;52.084;5.224;2023-03-16T03:57:44;101614.0;;;7.04;77.69
36834;BME280;48003;52.084;5.224;2023-03-16T03:59:20;101612.0;;;7.24;77.08
36834;BME280;48003;52.084;5.224;2023-03-16T04:00:56;101609.0;;;7.26;77.08
36834;BME280;48003;52.084;5.224;2023-03-16T04:02:33;101608.0;;;7.09;77.91
36834;BME280;48003;52.084;5.224;2023-03-16T04:05:45;101603.0;;;7.07;77.69
36834;BME280;48003;52.084;5.224;2023-03-16T04:07:21;101599.0;;;7.05;78.02
36834;BME280;48003;52.084;5.224;2023-03-16T04:08:57;101592.0;;;6.99;78.42
36834;BME280;48003;52.084;5.224;2023-03-16T04:12:10;101590.0;;;7.14;78.19
36834;BME280;48003;52.084;5.224;2023-03-16T04:13:49;101591.0;;;6.95;78.52
36834;BME280;48003;52.084;5.224;2023-03-16T04:15:26;101585.0;;;6.98;78.44
36834;BME280;48003;52.084;5.224;2023-03-16T04:18:38;101586.0;;;6.78;79.22
36834;BME280;48003;52.084;5.224;2023-03-16T04:20:15;101580.0;;;6.95;78.69
36834;BME280;48003;52.084;5.224;2023-03-16T04:21:51;101584.0;;;6.97;78.66
36834;BME280;48003;52.084;5.224;2023-03-16T04:23:28;101583.0;;;7.09;78.53
36834;BME280;48003;52.084;5.224;2023-03-16T04:26:40;101582.0;;;6.9;79.11
36834;BME280;48003;52.084;5.224;2023-03-16T04:28:16;101583.0;;;6.92;79.02
36834;BME280;48003;52.084;5.224;2023-03-16T04:29:52;101582.0;;;6.88;79.08
36834;BME280;48003;52.084;5.224;2023-03-16T04:33:04;101577.0;;;6.79;79.31
36834;BME280;48003;52.084;5.224;2023-03-16T04:34:40;101580.0;;;7.05;78.69
36834;BME280;48003;52.084;5.224;2023-03-16T04:36:17;101576.0;;;6.79;79.34
36834;BME280;48003;52.084;5.224;2023-03-16T04:39:29;101573.0;;;6.77;79.7
36834;BME280;48003;52.084;5.224;2023-03-16T04:41:05;101581.0;;;6.95;79.12
36834;BME280;48003;52.084;5.224;2023-03-16T04:42:43;101578.0;;;6.85;79.23
36834;BME280;48003;52.084;5.224;2023-03-16T04:44:19;101576.0;;;6.61;80.0
36834;BME280;48003;52.084;5.224;2023-03-16T04:47:31;101574.0;;;6.79;79.52
36834;BME280;48003;52.084;5.224;2023-03-16T04:49:08;101571.0;;;6.65;79.83
36834;BME280;48003;52.084;5.224;2023-03-16T04:50:47;101573.0;;;6.88;79.08
36834;BME280;48003;52.084;5.224;2023-03-16T04:54:00;101573.0;;;6.75;79.75
36834;BME280;48003;52.084;5.224;2023-03-16T04:55:36;101569.0;;;6.58;79.86
36834;BME280;48003;52.084;5.224;2023-03-16T04:57:12;101572.0;;;6.71;79.58
36834;BME280;48003;52.084;5.224;2023-03-16T05:00:26;101565.0;;;6.77;78.97
36834;BME280;48003;52.084;5.224;2023-03-16T05:02:02;101568.0;;;6.72;79.61
36834;BME280;48003;52.084;5.224;2023-03-16T05:03:40;101567.0;;;6.93;78.94
36834;BME280;48003;52.084;5.224;2023-03-16T05:05:16;101567.0;;;6.71;79.5
36834;BME280;48003;52.084;5.224;2023-03-16T05:08:29;101573.0;;;6.69;79.75
36834;BME280;48003;52.084;5.224;2023-03-16T05:10:06;101573.0;;;6.7;79.66
36834;BME280;48003;52.084;5.224;2023-03-16T05:11:42;101569.0;;;6.74;79.47
36834;BME280;48003;52.084;5.224;2023-03-16T05:14:55;101570.0;;;6.81;79.3
36834;BME280;48003;52.084;5.224;2023-03-16T05:16:31;101567.0;;;6.7;79.83
36834;BME280;48003;52.084;5.224;2023-03-16T05:18:08;101567.0;;;6.64;79.97
36834;BME280;48003;52.084;5.224;2023-03-16T05:21:20;101567.0;;;6.69;80.14
36834;BME280;48003;52.084;5.224;2023-03-16T05:22:56;101568.0;;;6.67;80.12
36834;BME280;48003;52.084;5.224;2023-03-16T05:24:32;101572.0;;;6.56;80.77
36834;BME280;48003;52.084;5.224;2023-03-16T05:26:08;101568.0;;;6.62;80.44
36834;BME280;48003;52.084;5.224;2023-03-16T05:29:24;101574.0;;;6.72;80.52
36834;BME280;48003;52.084;5.224;2023-03-16T05:31:00;101573.0;;;6.61;80.41
36834;BME280;48003;52.084;5.224;2023-03-16T05:32:36;101568.0;;;6.66;81.05
36834;BME280;48003;52.084;5.224;2023-03-16T05:35:49;101568.0;;;6.63;80.66
36834;BME280;48003;52.084;5.224;2023-03-16T05:37:26;101567.0;;;6.62;81.22
36834;BME280;48003;52.084;5.224;2023-03-16T05:39:02;101563.0;;;6.79;80.25
36834;BME280;48003;52.084;5.224;2023-03-16T05:42:14;101562.0;;;6.61;81.44
36834;BME280;48003;52.084;5.224;2023-03-16T05:43:51;101557.0;;;6.54;81.8
36834;BME280;48003;52.084;5.224;2023-03-16T05:45:27;101549.0;;;6.62;81.77
36834;BME280;48003;52.084;5.224;2023-03-16T05:47:03;101550.0;;;6.65;81.63
36834;BME280;48003;52.084;5.224;2023-03-16T05:50:16;101547.0;;;6.45;82.12
36834;BME280;48003;52.084;5.224;2023-03-16T05:51:52;101548.0;;;6.51;82.26
36834;BME280;48003;52.084;5.224;2023-03-16T05:53:28;101551.0;;;6.56;82.03
36834;BME280;48003;52.084;5.224;2023-03-16T05:56:43;101546.0;;;6.42;82.18
36834;BME280;48003;52.084;5.224;2023-03-16T05:58:19;101548.0;;;6.51;82.42
36834;BME280;48003;52.084;5.224;2023-03-16T05:59:55;101545.0;;;6.59;81.8
36834;BME280;48003;52.084;5.224;2023-03-16T06:03:07;101555.0;;;6.53;82.05
36834;BME280;48003;52.084;5.224;2023-03-16T06:04:43;101546.0;;;6.55;82.15
36834;BME280;48003;52.084;5.224;2023-03-16T06:06:20;101545.0;;;6.75;81.62
36834;BME280;48003;52.084;5.224;2023-03-16T06:09:34;101544.0;;;6.6;81.5
36834;BME280;48003;52.084;5.224;2023-03-16T06:11:10;101547.0;;;6.81;81.05
36834;BME280;48003;52.084;5.224;2023-03-16T06:12:47;101546.0;;;6.6;81.23
36834;BME280;48003;52.084;5.224;2023-03-16T06:14:23;101544.0;;;6.59;81.49
36834;BME280;48003;52.084;5.224;2023-03-16T06:17:36;101543.0;;;6.59;81.52
36834;BME280;48003;52.084;5.224;2023-03-16T06:19:13;101546.0;;;6.75;80.91
36834;BME280;48003;52.084;5.224;2023-03-16T06:20:49;101549.0;;;6.71;80.95
36834;BME280;48003;52.084;5.224;2023-03-16T06:24:03;101547.0;;;6.81;80.86
36834;BME280;48003;52.084;5.224;2023-03-16T06:25:40;101541.0;;;6.67;81.05
36834;BME280;48003;52.084;5.224;2023-03-16T06:27:16;101537.0;;;6.81;81.13
36834;BME280;48003;52.084;5.224;2023-03-16T06:30:29;101533.0;;;6.83;81.58
36834;BME280;48003;52.084;5.224;2023-03-16T06:32:05;101533.0;;;6.66;82.46
36834;BME280;48003;52.084;5.224;2023-03-16T06:33:41;101527.0;;;6.67;82.69
36834;BME280;48003;52.084;5.224;2023-03-16T06:35:17;101523.0;;;6.59;83.66
36834;BME280;48003;52.084;5.224;2023-03-16T06:38:30;101518.0;;;6.52;83.77
36834;BME280;48003;52.084;5.224;2023-03-16T06:40:07;101519.0;;;6.69;83.57
36834;BME280;48003;52.084;5.224;2023-03-16T06:41:44;101525.0;;;6.74;83.14
36834;BME280;48003;52.084;5.224;2023-03-16T06:44:56;101525.0;;;6.64;83.22
36834;BME280;48003;52.084;5.224;2023-03-16T06:46:32;101518.0;;;6.66;83.4
36834;BME280;48003;52.084;5.224;2023-03-16T06:48:08;101516.0;;;6.69;83.24
36834;BME280;48003;52.084;5.224;2023-03-16T06:51:21;101521.0;;;6.71;83.32
36834;BME280;48003;52.084;5.224;2023-03-16T06:52:57;101519.0;;;6.87;82.89
36834;BME280;48003;52.084;5.224;2023-03-16T06:54:33;101517.0;;;6.68;83.07
36834;BME280;48003;52.084;5.224;2023-03-16T06:56:09;101516.0;;;6.72;83.24
36834;BME280;48003;52.084;5.224;2023-03-16T06:59:22;101512.0;;;6.67;82.72
36834;BME280;48003;52.084;5.224;2023-03-16T07:01:00;101511.0;;;6.77;82.79
36834;BME280;48003;52.084;5.224;2023-03-16T07:02:37;101508.0;;;6.71;82.81
36834;BME280;48003;52.084;5.224;2023-03-16T07:05:49;101507.0;;;6.85;82.4
36834;BME280;48003;52.084;5.224;2023-03-16T07:07:25;101502.0;;;6.72;82.71
36834;BME280;48003;52.084;5.224;2023-03-16T07:09:01;101509.0;;;6.63;82.74
36834;BME280;48003;52.084;5.224;2023-03-16T07:12:14;101511.0;;;6.57;83.15
36834;BME280;48003;52.084;5.224;2023-03-16T07:13:51;101505.0;;;6.66;82.91
36834;BME280;48003;52.084;5.224;2023-03-16T07:15:27;101506.0;;;6.61;83.46
36834;BME280;48003;52.084;5.224;2023-03-16T07:17:03;101511.0;;;6.72;83.58
36834;BME280;48003;52.084;5.224;2023-03-16T07:20:15;101505.0;;;6.69;83.62
36834;BME280;48003;52.084;5.224;2023-03-16T07:21:51;101505.0;;;6.68;83.5
36834;BME280;48003;52.084;5.224;2023-03-16T07:23:28;101506.0;;;6.71;84.18
36834;BME280;48003;52.084;5.224;2023-03-16T07:26:42;101506.0;;;6.83;83.72
36834;BME280;48003;52.084;5.224;2023-03-16T07:28:18;101501.0;;;6.75;83.8
36834;BME280;48003;52.084;5.224;2023-03-16T07:29:55;101495.0;;;6.87;83.3
36834;BME280;48003;52.084;5.224;2023-03-16T07:33:08;101497.0;;;6.73;83.26
36834;BME280;48003;52.084;5.224;2023-03-16T07:34:44;101494.0;;;6.79;83.28
36834;BME280;48003;52.084;5.224;2023-03-16T07:36:20;101491.0;;;6.79;83.69
36834;BME280;48003;52.084;5.224;2023-03-16T07:37:56;101500.0;;;6.84;83.26
36834;BME280;48003;52.084;5.224;2023-03-16T07:41:08;101502.0;;;7.03;82.88
36834;BME280;48003;52.084;5.224;2023-03-16T07:42:44;101503.0;;;6.77;83.06
36834;BME280;48003;52.084;5.224;2023-03-16T07:44:20;101497.0;;;7.0;82.42
36834;BME280;48003;52.084;5.224;2023-03-16T07:47:33;101500.0;;;7.04;82.96
36834;BME280;48003;52.084;5.224;2023-03-16T07:49:10;101502.0;;;6.95;82.85
36834;BME280;48003;52.084;5.224;2023-03-16T07:50:47;101507.0;;;6.9;82.53
36834;BME280;48003;52.084;5.224;2023-03-16T07:53:59;101512.0;;;6.87;83.11
36834;BME280;48003;52.084;5.224;2023-03-16T07:55:35;101518.0;;;6.88;82.45
36834;BME280;48003;52.084;5.224;2023-03-16T07:57:11;101514.0;;;6.83;83.63
36834;BME280;48003;52.084;5.224;2023-03-16T08:00:24;101501.0;;;6.93;83.08
36834;BME280;48003;52.084;5.224;2023-03-16T08:02:00;101495.0;;;6.97;83.27
36834;BME280;48003;52.084;5.224;2023-03-16T08:03:36;101499.0;;;6.94;83.17
36834;BME280;48003;52.084;5.224;2023-03-16T08:05:13;101494.0;;;6.97;82.36
36834;BME280;48003;52.084;5.224;2023-03-16T08:08:25;101489.0;;;6.97;82.87
36834;BME280;48003;52.084;5.224;2023-03-16T08:10:02;101488.0;;;7.04;82.95
36834;BME280;48003;52.084;5.224;2023-03-16T08:11:38;101486.0;;;7.09;82.47
36834;BME280;48003;52.084;5.224;2023-03-16T08:14:51;101471.0;;;7.09;82.25
36834;BME280;48003;52.084;5.224;2023-03-16T08:16:27;101474.0;;;7.11;81.88
36834;BME280;48003;52.084;5.224;2023-03-16T08:18:03;101480.0;;;7.19;81.98
36834;BME280;48003;52.084;5.224;2023-03-16T08:21:16;101476.0;;;7.2;81.36
36834;BME280;48003;52.084;5.224;2023-03-16T08:22:53;101473.0;;;7.22;80.19
36834;BME280;48003;52.084;5.224;2023-03-16T08:24:29;101475.0;;;7.19;81.13
36834;BME280;48003;52.084;5.224;2023-03-16T08:26:05;101472.0;;;7.33;80.25
36834;BME280;48003;52.084;5.224;2023-03-16T08:29:17;101480.0;;;7.22;80.3
36834;BME280;48003;52.084;5.224;2023-03-16T08:30:54;101483.0;;;7.28;80.52
36834;BME280;48003;52.084;5.224;2023-03-16T08:32:30;101482.0;;;7.41;79.13
36834;BME280;48003;52.084;5.224;2023-03-16T08:35:45;101484.0;;;7.46;79.56
36834;BME280;48003;52.084;5.224;2023-03-16T08:37:23;101481.0;;;7.55;79.3
36834;BME280;48003;52.084;5.224;2023-03-16T08:38:59;101491.0;;;7.55;78.19
36834;BME280;48003;52.084;5.224;2023-03-16T08:42:12;101498.0;;;7.61;77.58
36834;BME280;48003;52.084;5.224;2023-03-16T08:43:48;101505.0;;;7.42;77.95
36834;BME280;48003;52.084;5.224;2023-03-16T08:45:24;101486.0;;;7.42;78.73
36834;BME280;48003;52.084;5.224;2023-03-16T08:47:00;101491.0;;;7.65;77.97
36834;BME280;48003;52.084;5.224;2023-03-16T08:50:13;101483.0;;;7.63;78.05
36834;BME280;48003;52.084;5.224;2023-03-16T08:51:49;101483.0;;;7.66;77.91
36834;BME280;48003;52.084;5.224;2023-03-16T08:53:25;101480.0;;;7.71;77.8
36834;BME280;48003;52.084;5.224;2023-03-16T08:56:38;101481.0;;;7.76;77.47
36834;BME280;48003;52.084;5.224;2023-03-16T08:58:14;101474.0;;;7.79;77.23
36834;BME280;48003;52.084;5.224;2023-03-16T08:59:50;101477.0;;;7.84;77.41
36834;BME280;48003;52.084;5.224;2023-03-16T09:03:03;101471.0;;;7.94;76.89
36834;BME280;48003;52.084;5.224;2023-03-16T09:04:41;101468.0;;;7.85;77.16
36834;BME280;48003;52.084;5.224;2023-03-16T09:06:17;101471.0;;;7.86;76.55
36834;BME280;48003;52.084;5.224;2023-03-16T09:07:54;101469.0;;;7.82;76.48
36834;BME280;48003;52.084;5.224;2023-03-16T09:11:08;101467.0;;;7.81;76.05
36834;BME280;48003;52.084;5.224;2023-03-16T09:12:45;101462.0;;;8.1;75.41
36834;BME280;48003;52.084;5.224;2023-03-16T09:14:21;101456.0;;;7.91;75.5
36834;BME280;48003;52.084;5.224;2023-03-16T09:17:33;101467.0;;;7.99;74.78
36834;BME280;48003;52.084;5.224;2023-03-16T09:19:10;101453.0;;;7.91;75.28
36834;BME280;48003;52.084;5.224;2023-03-16T09:20:46;101467.0;;;8.05;75.13
36834;BME280;48003;52.084;5.224;2023-03-16T09:26:13;101470.0;;;7.98;74.58
36834;BME280;48003;52.084;5.224;2023-03-16T09:27:50;101461.0;;;7.99;74.5
36834;BME280;48003;52.084;5.224;2023-03-16T09:29:26;101469.0;;;8.14;74.69
36834;BME280;48003;52.084;5.224;2023-03-16T09:31:02;101455.0;;;8.11;74.58
36834;BME280;48003;52.084;5.224;2023-03-16T09:34:15;101461.0;;;8.31;73.91
36834;BME280;48003;52.084;5.224;2023-03-16T09:35:51;101453.0;;;8.39;73.36
36834;BME280;48003;52.084;5.224;2023-03-16T09:37:28;101466.0;;;8.25;72.84
36834;BME280;48003;52.084;5.224;2023-03-16T09:40:40;101458.0;;;8.27;73.03
36834;BME280;48003;52.084;5.224;2023-03-16T09:42:19;101444.0;;;8.43;72.66
36834;BME280;48003;52.084;5.224;2023-03-16T09:44:09;101448.0;;;8.4;72.45
36834;BME280;48003;52.084;5.224;2023-03-16T09:45:57;101450.0;;;8.41;72.44
36834;BME280;48003;52.084;5.224;2023-03-16T09:49:18;101442.0;;;8.65;71.59
36834;BME280;48003;52.084;5.224;2023-03-16T09:50:57;101443.0;;;8.64;71.34
36834;BME280;48003;52.084;5.224;2023-03-16T09:52:40;101439.0;;;8.55;71.12
36834;BME280;48003;52.084;5.224;2023-03-16T09:54:23;101438.0;;;8.61;70.97
36834;BME280;48003;52.084;5.224;2023-03-16T09:56:07;101451.0;;;8.73;71.77
36834;BME280;48003;52.084;5.224;2023-03-16T09:59:23;101444.0;;;8.73;70.63
36834;BME280;48003;52.084;5.224;2023-03-16T10:01:06;101438.0;;;8.84;70.74
36834;BME280;48003;52.084;5.224;2023-03-16T10:02:57;101434.0;;;8.98;70.05
36834;BME280;48003;52.084;5.224;2023-03-16T10:04:56;101430.0;;;9.06;69.86
36834;BME280;48003;52.084;5.224;2023-03-16T10:06:44;101430.0;;;9.06;69.47
36834;BME280;48003;52.084;5.224;2023-03-16T10:10:19;101437.0;;;9.06;69.03
36834;BME280;48003;52.084;5.224;2023-03-16T10:12:02;101439.0;;;9.18;68.69
36834;BME280;48003;52.084;5.224;2023-03-16T10:13:46;101431.0;;;9.24;68.64
36834;BME280;48003;52.084;5.224;2023-03-16T10:15:26;101434.0;;;9.31;68.48
36834;BME280;48003;52.084;5.224;2023-03-16T10:17:11;101430.0;;;9.31;68.12
36834;BME280;48003;52.084;5.224;2023-03-16T10:20:36;101427.0;;;9.4;68.33
36834;BME280;48003;52.084;5.224;2023-03-16T10:22:17;101440.0;;;9.41;67.87
36834;BME280;48003;52.084;5.224;2023-03-16T10:23:58;101428.0;;;9.64;67.36
36834;BME280;48003;52.084;5.224;2023-03-16T10:25:42;101439.0;;;9.85;66.47
36834;BME280;48003;52.084;5.224;2023-03-16T10:29:03;101430.0;;;10.1;65.16
36834;BME280;48003;52.084;5.224;2023-03-16T10:30:41;101431.0;;;10.1;66.06
36834;BME280;48003;52.084;5.224;2023-03-16T10:32:18;101421.0;;;10.14;64.85
36834;BME280;48003;52.084;5.224;2023-03-16T10:34:01;101414.0;;;10.17;64.8
36834;BME280;48003;52.084;5.224;2023-03-16T10:37:23;101408.0;;;10.44;65.05
36834;BME280;48003;52.084;5.224;2023-03-16T10:39:02;101407.0;;;10.46;62.68
36834;BME280;48003;52.084;5.224;2023-03-16T10:40:40;101410.0;;;10.48;62.89
36834;BME280;48003;52.084;5.224;2023-03-16T10:42:18;101402.0;;;10.59;62.47
36834;BME280;48003;52.084;5.224;2023-03-16T10:45:35;101396.0;;;10.7;61.93
36834;BME280;48003;52.084;5.224;2023-03-16T10:47:17;101402.0;;;10.6;62.01
36834;BME280;48003;52.084;5.224;2023-03-16T10:48:55;101389.0;;;11.02;61.67
36834;BME280;48003;52.084;5.224;2023-03-16T10:50:32;101398.0;;;11.05;61.16
36834;BME280;48003;52.084;5.224;2023-03-16T10:53:56;101401.0;;;11.12;61.25
36834;BME280;48003;52.084;5.224;2023-03-16T10:55:41;101387.0;;;11.11;59.85
36834;BME280;48003;52.084;5.224;2023-03-16T10:57:26;101383.0;;;11.07;60.29
36834;BME280;48003;52.084;5.224;2023-03-16T11:01:09;101383.0;;;11.0;60.47
36834;BME280;48003;52.084;5.224;2023-03-16T11:04:23;101373.0;;;10.9;60.46
36834;BME280;48003;52.084;5.224;2023-03-16T11:06:00;101370.0;;;11.07;60.96
36834;BME280;48003;52.084;5.224;2023-03-16T11:07:38;101372.0;;;10.96;60.43
36834;BME280;48003;52.084;5.224;2023-03-16T11:10:58;101369.0;;;10.99;60.03
36834;BME280;48003;52.084;5.224;2023-03-16T11:12:35;101373.0;;;11.14;60.12
36834;BME280;48003;52.084;5.224;2023-03-16T11:15:51;101378.0;;;11.15;59.03
36834;BME280;48003;52.084;5.224;2023-03-16T11:19:16;101356.0;;;11.4;59.61
36834;BME280;48003;52.084;5.224;2023-03-16T11:21:00;101347.0;;;11.47;59.51